CYYN

Swift Current Airport

Swift Current, Saskatchewan, Canada
METAR CYYN 161400Z AUTO 26011G16KT 9SM CLR M07/M10 A2985 RMK SLP147
Observed Flight Rules
Dec-16 @ 14:00 UTC (46 minutes ago) Visual Flight Rules
Wind Visibility Clouds
260° at 11 knots
 Gusting to 16 knots
9 miles
  • Clear skies
Temperatures Readings
Current -7°C / 19°F
Dewpoint -10°C / 14°F
Humidity 79%
Altimeter 29.85" Hg
Pressure 1014.7 hPa
Elevation 818
METAR CYYN 161400Z AUTO 26011G16KT 9SM CLR M07/M10 A2985 RMK SLP147
Observed Flight Rules
Dec-16 @ 14:00 UTC
(46 minutes ago)
VFR
Wind Visibility
260° at 11 knots
 Gusting to 16 knots
9 miles
Clouds
  • Clear skies
Temperature Dewpoint
-7°C / 19°F -10°C / 14°F
Humidity Altimeter Pressure
79% 29.85" Hg 1014.7 hPa